Albuquerque, NM (87117)

5:43 PM MDT on July 27, 2016 (GMT -0600)
Siesta Hills | | Change Station

Elev 5338 ft 35.05 °N, 106.58 °W | Updated 13 minutes ago

Scattered Clouds
Scattered Clouds
90.2 °F
Feels Like 88 °F
N
11.0
Wind Variable Wind from ESE
Gusts 13.0 mph

Today
High -- | Low -- °F
--% Chance of Precip.
Yesterday
High -- | Low -- °F
Precip. -- in
Pressure 29.83 in
Visibility 10.0 miles
Clouds Scattered Clouds 9000 ft
Scattered Clouds 25000 ft
Heat Index 88 °F
Dew Point 53 °F
Humidity 28%
Rainfall 0.00 in
Snow Depth Not available.
6:12 AM 8:12 PM
Last Quarter, 38% visible
METAR KABQ 272252Z 13011G20KT 10SM SCT090CB SCT250 33/11 A3011 RMK AO2 SLP099 CB SE MOV S T03330111
Pressure 29.83 in
Visibility 10.0 miles
Clouds Scattered Clouds 9000 ft
Scattered Clouds 25000 ft
Heat Index 88 °F
Dew Point 53 °F
Humidity 28%
Rainfall 0.00 in
Snow Depth Not available.
6:12 AM 8:12 PM
Last Quarter, 38% visible
METAR KABQ 272252Z 13011G20KT 10SM SCT090CB SCT250 33/11 A3011 RMK AO2 SLP099 CB SE MOV S T03330111

10-Day Weather Forecast

Almanac

Astronomy

Jul. 27, 2016 Rise Set
Actual Time
Civil Twilight
Nautical Twilight
Astronomical Twilight
Moon
Length of Visible Light
Length of Day
Tomorrow will be .
, % of the Moon is Illuminated

Today's Extremes

State Highs State Lows

Community

WunderPhotos

Upload Photos

1,927,958 photos uploaded!

WunderBlog® & News

Nearby

Air Quality

  Air Quality AQ Index Pollutant
Not available.

Snow Depth

Station Depth Elevation

Earthquake Activity

City Distance Mag. Time & Date
Minimum magnitude displayed is 2.5.

Coastal Water Temperatures

Place Temperature

Stations

Nearby Weather Stations

Station Location Temp. Windchill Dew Point Humidity Wind Precip. Elev Updated Type
                   

Watches & Warnings

There are currently no watches in effect.